Terminal Aerodrome Forecast
Issued by NWS

Home | Current Version | Previous Version | Text Only | Print | Product List | Glossary On
Versions: 1 2 3 4 5 6 7 8 9 10 11 12 13 14 15 16
341
FTUS43 KMPX 252338
TAFRNH
TAF
KRNH 252338Z 2600/2624 07010G15KT P6SM OVC022
     FM260200 06008KT P6SM OVC015
     FM260400 04007KT 5SM -RA BR OVC008
     FM260800 03007KT 3SM -RADZ BR SCT003 OVC005
     FM261800 02005KT 6SM BR OVC009=

USA.gov is the U.S. government's official web portal to all federal, state and local government web resources and services.